Time;durP1;ratioP1;P1;durP2;ratioP2;P2;SDS_P1;SDS_P2;PMS_P1;PMS_P2;Temp;Humidity;BMP_temperature;BMP_pressure;BME280_temperature;BME280_humidity;BME280_pressure;Samples;Min_cycle;Max_cycle;Signal;HPM_P1;HPM_P2
2023/12/21 00:02:31;;;;;;;6.17;2.60;;;3.50;99.90;;;;;;5034304;28;20240;-75
2023/12/21 00:05:18;;;;;;;6.40;2.90;;;3.50;99.90;;;;;;5034880;28;20232;-74
2023/12/21 00:08:05;;;;;;;8.87;2.93;;;3.50;99.90;;;;;;5033938;28;20586;-74
2023/12/21 00:10:53;;;;;;;12.00;3.60;;;3.50;99.90;;;;;;5033261;28;20352;-75
2023/12/21 00:13:40;;;;;;;8.70;3.00;;;3.50;99.90;;;;;;5033121;28;20245;-75
2023/12/21 00:16:27;;;;;;;8.53;3.53;;;3.50;99.90;;;;;;5033210;28;20279;-75
2023/12/21 00:19:16;;;;;;;8.37;2.90;;;3.60;99.90;;;;;;5033644;28;20222;-75
2023/12/21 00:22:03;;;;;;;7.77;3.13;;;3.60;99.90;;;;;;5032675;28;20209;-75
2023/12/21 00:24:51;;;;;;;8.50;3.00;;;3.60;99.90;;;;;;5033844;28;20562;-75
2023/12/21 00:27:38;;;;;;;9.57;3.20;;;3.60;99.90;;;;;;5032524;28;20350;-75
2023/12/21 00:30:26;;;;;;;8.50;3.57;;;3.60;99.90;;;;;;5034867;28;20289;-75
2023/12/21 00:33:13;;;;;;;7.20;3.40;;;3.60;99.90;;;;;;5032710;28;20201;-75
2023/12/21 00:36:01;;;;;;;9.07;3.50;;;3.60;99.90;;;;;;5033979;28;20203;-75
2023/12/21 00:38:48;;;;;;;9.10;3.20;;;3.70;99.90;;;;;;5033703;28;20219;-75
2023/12/21 00:41:35;;;;;;;8.77;3.20;;;3.70;99.90;;;;;;5031832;28;20243;-75
2023/12/21 00:44:23;;;;;;;9.23;3.40;;;3.70;99.90;;;;;;5032766;28;20226;-75
2023/12/21 00:47:10;;;;;;;9.87;3.40;;;3.60;99.90;;;;;;5033251;28;20203;-75
2023/12/21 00:49:57;;;;;;;7.83;3.20;;;3.60;99.90;;;;;;5031954;28;20676;-75
2023/12/21 00:52:45;;;;;;;9.30;3.20;;;3.70;99.90;;;;;;5033198;28;20193;-75
2023/12/21 00:55:32;;;;;;;7.97;3.73;;;3.60;99.90;;;;;;5033150;28;20203;-75
2023/12/21 00:58:20;;;;;;;9.30;3.67;;;3.70;99.90;;;;;;5034231;28;20205;-74
2023/12/21 01:01:08;;;;;;;7.43;3.77;;;3.70;99.90;;;;;;5032910;28;20299;-75
2023/12/21 01:03:55;;;;;;;9.73;3.60;;;3.60;99.90;;;;;;5032292;28;20262;-75
2023/12/21 01:06:43;;;;;;;8.70;3.47;;;3.60;99.90;;;;;;5034164;28;20586;-76
2023/12/21 01:09:30;;;;;;;7.37;3.50;;;3.60;99.90;;;;;;5032193;28;20199;-75
2023/12/21 01:12:17;;;;;;;9.07;3.67;;;3.50;99.90;;;;;;5030647;28;20688;-75
2023/12/21 01:15:07;;;;;;;9.60;3.57;;;3.60;99.90;;;;;;5033811;28;20224;-75
2023/12/21 01:17:54;;;;;;;7.97;3.47;;;3.60;99.90;;;;;;5032668;28;20205;-75
2023/12/21 01:20:41;;;;;;;9.20;3.57;;;3.60;99.90;;;;;;5032617;28;20233;-75
2023/12/21 01:23:29;;;;;;;7.40;3.33;;;3.60;99.90;;;;;;5032043;28;20206;-75
2023/12/21 01:26:16;;;;;;;7.80;3.43;;;3.60;99.90;;;;;;5031948;28;20229;-75
2023/12/21 01:29:03;;;;;;;8.97;3.80;;;3.70;99.90;;;;;;5032475;28;20197;-75
2023/12/21 01:31:51;;;;;;;5.63;3.00;;;3.70;99.90;;;;;;5032419;28;20193;-75
2023/12/21 01:34:38;;;;;;;12.30;3.77;;;3.70;99.90;;;;;;5032417;28;20191;-75
2023/12/21 01:37:26;;;;;;;9.20;3.80;;;3.70;99.90;;;;;;5031965;28;20660;-75
2023/12/21 01:40:15;;;;;;;8.83;3.60;;;3.70;99.90;;;;;;5032128;28;20221;-75
2023/12/21 01:43:02;;;;;;;9.50;3.47;;;3.70;99.90;;;;;;5033540;28;20645;-75
2023/12/21 01:45:50;;;;;;;10.53;4.10;;;3.60;99.90;;;;;;5033212;28;20199;-75
2023/12/21 01:48:39;;;;;;;10.30;3.50;;;3.60;99.90;;;;;;5032222;28;20243;-75
2023/12/21 01:51:27;;;;;;;12.07;3.87;;;3.60;99.90;;;;;;5031832;28;20206;-75
2023/12/21 01:54:15;;;;;;;8.93;3.50;;;3.50;99.90;;;;;;5034109;28;20199;-75
2023/12/21 01:57:02;;;;;;;13.73;3.70;;;3.50;99.90;;;;;;5036478;28;20240;-75
2023/12/21 01:59:51;;;;;;;13.03;4.10;;;3.40;99.90;;;;;;5035275;28;20256;-75
2023/12/21 02:02:38;;;;;;;10.83;3.80;;;3.40;99.90;;;;;;5034639;28;20198;-75
2023/12/21 02:05:26;;;;;;;10.83;3.90;;;3.40;99.90;;;;;;5034471;28;20429;-76
2023/12/21 02:08:13;;;;;;;10.47;3.60;;;3.40;99.90;;;;;;5035519;28;20283;-75
2023/12/21 02:11:06;;;;;;;10.50;3.57;;;3.50;99.90;;;;;;5036012;28;20372;-75
2023/12/21 02:13:54;;;;;;;13.43;3.90;;;3.50;99.90;;;;;;5036128;28;20672;-75
2023/12/21 02:17:04;;;;;;;11.07;3.93;;;3.60;99.90;;;;;;5036070;28;20236;-75
2023/12/21 02:19:53;;;;;;;9.00;3.67;;;3.60;99.90;;;;;;5035232;28;20227;-75
2023/12/21 02:22:41;;;;;;;13.50;4.50;;;3.50;99.90;;;;;;5035513;28;20224;-75
2023/12/21 02:25:29;;;;;;;11.50;4.00;;;3.60;99.90;;;;;;5035763;28;20208;-74
2023/12/21 02:28:16;;;;;;;9.80;4.17;;;3.60;99.90;;;;;;5036288;28;20276;-75
2023/12/21 02:31:03;;;;;;;11.17;4.40;;;3.60;99.90;;;;;;5036694;28;20672;-75
2023/12/21 02:33:51;;;;;;;13.27;4.00;;;3.60;99.90;;;;;;5035774;28;20684;-75
2023/12/21 02:36:38;;;;;;;9.77;3.83;;;3.70;99.90;;;;;;5036900;28;20197;-75
2023/12/21 02:39:26;;;;;;;12.57;4.00;;;3.70;99.90;;;;;;5035726;28;20316;-75
2023/12/21 02:42:13;;;;;;;9.57;3.90;;;3.70;99.90;;;;;;5034985;28;20224;-76
2023/12/21 02:45:00;;;;;;;13.23;4.27;;;3.70;99.90;;;;;;5035199;28;20196;-75
2023/12/21 02:47:47;;;;;;;9.97;3.97;;;3.80;99.90;;;;;;5036007;28;20560;-75
2023/12/21 02:50:35;;;;;;;11.70;4.20;;;3.80;99.90;;;;;;5035917;28;20573;-75
2023/12/21 02:53:22;;;;;;;8.40;3.90;;;3.80;99.90;;;;;;5035652;28;20191;-75
2023/12/21 02:56:09;;;;;;;11.83;3.77;;;3.80;99.90;;;;;;5034332;28;20230;-75
2023/12/21 02:58:57;;;;;;;13.33;4.23;;;3.90;99.90;;;;;;5035442;28;20240;-75
2023/12/21 03:01:44;;;;;;;9.57;4.00;;;3.80;99.90;;;;;;5035384;28;20201;-75
2023/12/21 03:04:31;;;;;;;11.40;3.63;;;3.90;99.90;;;;;;5035458;28;20738;-76
2023/12/21 03:07:19;;;;;;;7.33;3.37;;;3.90;99.90;;;;;;5035108;28;20199;-75
2023/12/21 03:10:07;;;;;;;10.83;3.70;;;3.80;99.90;;;;;;5035617;28;20196;-75
2023/12/21 03:12:54;;;;;;;12.30;3.63;;;3.80;99.90;;;;;;5035499;28;20576;-76
2023/12/21 03:15:42;;;;;;;9.97;3.93;;;3.90;99.90;;;;;;5035742;28;20202;-76
2023/12/21 03:18:29;;;;;;;12.93;3.90;;;3.90;99.90;;;;;;5034878;28;20679;-75
2023/12/21 03:21:17;;;;;;;11.47;3.63;;;3.90;99.90;;;;;;5033583;28;20694;-76
2023/12/21 03:24:04;;;;;;;12.37;3.57;;;3.90;99.90;;;;;;5034819;28;20191;-75
2023/12/21 03:26:52;;;;;;;10.97;3.47;;;3.90;99.90;;;;;;5034001;28;20699;-75
2023/12/21 03:29:41;;;;;;;12.30;3.40;;;3.90;99.90;;;;;;5034896;28;20204;-75
2023/12/21 03:32:28;;;;;;;8.80;3.30;;;3.90;99.90;;;;;;5032253;28;20198;-76
2023/12/21 03:35:16;;;;;;;9.10;3.10;;;3.90;99.90;;;;;;5035288;28;20546;-76
2023/12/21 03:38:03;;;;;;;6.63;3.03;;;3.90;99.90;;;;;;5033133;28;20229;-76
2023/12/21 03:40:50;;;;;;;10.23;3.60;;;3.90;99.90;;;;;;5034852;28;20305;-75
2023/12/21 03:43:38;;;;;;;8.27;3.00;;;3.90;99.90;;;;;;5035629;28;20296;-75
2023/12/21 03:46:25;;;;;;;10.27;2.90;;;3.90;99.90;;;;;;5034418;28;20200;-76
2023/12/21 03:49:12;;;;;;;7.77;3.20;;;3.80;99.90;;;;;;5034310;28;20192;-75
2023/12/21 03:52:00;;;;;;;8.70;3.30;;;3.90;99.90;;;;;;5034412;28;20192;-76
2023/12/21 03:54:47;;;;;;;6.13;3.13;;;3.90;99.90;;;;;;5033187;28;20216;-75
2023/12/21 03:57:34;;;;;;;9.40;3.53;;;3.90;99.90;;;;;;5034124;28;20251;-76
2023/12/21 04:00:22;;;;;;;9.63;3.20;;;3.80;99.90;;;;;;5035281;28;20267;-75
2023/12/21 04:03:09;;;;;;;7.63;3.50;;;3.80;99.90;;;;;;5033025;28;20269;-76
2023/12/21 04:05:57;;;;;;;7.53;3.53;;;3.80;99.90;;;;;;5034017;28;20748;-75
2023/12/21 04:08:44;;;;;;;9.07;3.00;;;3.80;99.90;;;;;;5033350;28;20250;-75
2023/12/21 04:11:31;;;;;;;6.80;3.40;;;3.80;99.90;;;;;;5033178;28;20220;-76
2023/12/21 04:14:19;;;;;;;8.40;3.13;;;3.90;99.90;;;;;;5033967;28;20329;-76
2023/12/21 04:17:06;;;;;;;8.17;3.20;;;3.90;99.90;;;;;;5033280;28;20276;-75
2023/12/21 04:19:54;;;;;;;11.13;3.30;;;3.80;99.90;;;;;;5034479;28;20256;-75
2023/12/21 04:22:41;;;;;;;7.90;3.10;;;3.80;99.90;;;;;;5034345;28;20267;-75
2023/12/21 04:25:29;;;;;;;11.83;3.83;;;3.90;99.90;;;;;;5034066;28;20307;-76
2023/12/21 04:28:16;;;;;;;6.47;3.07;;;3.80;99.90;;;;;;5032891;28;20341;-75
2023/12/21 04:31:03;;;;;;;7.37;3.13;;;3.80;99.90;;;;;;5034146;28;20198;-75
2023/12/21 04:33:52;;;;;;;9.97;3.77;;;3.80;99.90;;;;;;5032997;28;20208;-75
2023/12/21 04:36:40;;;;;;;10.80;4.10;;;3.80;99.90;;;;;;5032349;28;20726;-77
2023/12/21 04:39:27;;;;;;;9.07;3.60;;;3.80;99.90;;;;;;5033255;28;20278;-75
2023/12/21 04:42:14;;;;;;;6.97;3.80;;;3.80;99.90;;;;;;5033213;28;20215;-75
2023/12/21 04:45:02;;;;;;;10.00;3.97;;;3.80;99.90;;;;;;5032622;28;20191;-77
2023/12/21 04:47:49;;;;;;;8.27;3.83;;;3.80;99.90;;;;;;5033242;28;20205;-75
2023/12/21 04:50:37;;;;;;;8.57;3.83;;;3.70;99.90;;;;;;5033863;28;20206;-75
2023/12/21 04:53:24;;;;;;;10.53;4.33;;;3.70;99.90;;;;;;5033481;28;20238;-75
2023/12/21 04:56:13;;;;;;;8.20;4.13;;;3.70;99.90;;;;;;5032738;28;20220;-75
2023/12/21 04:59:00;;;;;;;7.87;4.33;;;3.70;99.90;;;;;;5032025;28;20209;-75
2023/12/21 05:01:50;;;;;;;7.77;4.10;;;3.70;99.90;;;;;;5032954;28;20201;-75
2023/12/21 05:04:38;;;;;;;10.17;4.40;;;3.70;99.90;;;;;;5032690;28;20718;-75
2023/12/21 05:07:25;;;;;;;9.37;4.27;;;3.70;99.90;;;;;;5032834;28;20195;-76
2023/12/21 05:10:13;;;;;;;10.27;4.00;;;3.70;99.90;;;;;;5033334;28;20210;-75
2023/12/21 05:13:00;;;;;;;8.47;4.23;;;3.70;99.90;;;;;;5032703;28;20778;-75
2023/12/21 05:15:48;;;;;;;6.07;3.83;;;3.70;99.90;;;;;;5031712;28;20655;-75
2023/12/21 05:18:36;;;;;;;8.03;3.77;;;3.70;99.90;;;;;;5031721;28;20671;-76
2023/12/21 05:21:24;;;;;;;6.60;3.50;;;3.80;99.90;;;;;;5032654;28;20236;-76
2023/12/21 05:24:11;;;;;;;9.47;3.83;;;3.80;99.90;;;;;;5031645;28;20235;-75
2023/12/21 05:26:58;;;;;;;6.97;3.87;;;3.70;99.90;;;;;;5032577;28;20218;-75
2023/12/21 05:29:46;;;;;;;5.67;3.47;;;3.70;99.90;;;;;;5032462;28;20278;-76
2023/12/21 05:32:33;;;;;;;7.70;4.00;;;3.70;99.90;;;;;;5032440;28;20222;-76
2023/12/21 05:35:21;;;;;;;7.77;4.07;;;3.60;99.90;;;;;;5033907;28;20704;-75
2023/12/21 05:38:08;;;;;;;7.53;3.63;;;3.60;99.90;;;;;;5032616;28;20202;-75
2023/12/21 05:40:56;;;;;;;5.83;3.40;;;3.50;99.90;;;;;;5031777;28;20232;-75
2023/12/21 05:43:43;;;;;;;6.33;3.70;;;3.50;99.90;;;;;;5034139;28;20645;-75
2023/12/21 05:46:31;;;;;;;7.27;4.00;;;3.40;99.90;;;;;;5032285;28;20211;-76
2023/12/21 05:49:18;;;;;;;7.23;3.53;;;3.40;99.90;;;;;;5032322;28;20675;-77
2023/12/21 05:52:06;;;;;;;4.67;3.43;;;3.40;99.90;;;;;;5032549;28;20199;-76
2023/12/21 05:54:53;;;;;;;6.77;3.57;;;3.40;99.90;;;;;;5033445;28;20199;-76
2023/12/21 05:57:43;;;;;;;6.33;4.10;;;3.40;99.90;;;;;;5030562;28;20226;-76
2023/12/21 06:00:31;;;;;;;4.90;3.50;;;3.30;99.90;;;;;;5031629;28;20237;-77
2023/12/21 06:03:18;;;;;;;7.07;3.80;;;3.30;99.90;;;;;;5032200;28;20202;-75
2023/12/21 06:06:05;;;;;;;5.87;3.43;;;3.30;99.90;;;;;;5031418;28;20776;-75
2023/12/21 06:08:52;;;;;;;5.63;3.70;;;3.40;99.90;;;;;;5031559;28;20199;-75
2023/12/21 06:11:40;;;;;;;9.90;4.60;;;3.40;99.90;;;;;;5031997;28;20222;-76
2023/12/21 06:14:28;;;;;;;6.57;3.57;;;3.40;99.90;;;;;;5032108;28;20317;-76
2023/12/21 06:17:15;;;;;;;6.20;3.50;;;3.40;99.90;;;;;;5032041;28;20747;-88
2023/12/21 06:20:03;;;;;;;5.50;3.67;;;3.40;99.90;;;;;;5032836;28;20625;-87
2023/12/21 06:22:51;;;;;;;5.80;3.60;;;3.40;99.90;;;;;;5033670;28;20193;-84
2023/12/21 06:25:39;;;;;;;5.10;3.80;;;3.30;99.90;;;;;;5034073;28;20679;-85
2023/12/21 06:28:27;;;;;;;4.87;3.63;;;3.30;99.90;;;;;;5032591;28;20201;-89
2023/12/21 06:31:16;;;;;;;6.03;3.77;;;3.30;99.90;;;;;;5030468;28;20248;-89
2023/12/21 06:34:04;;;;;;;6.07;3.60;;;3.30;99.90;;;;;;5032508;28;20314;-88
2023/12/21 06:36:51;;;;;;;5.57;3.60;;;3.30;99.90;;;;;;5033889;28;20198;-87
2023/12/21 06:39:39;;;;;;;4.87;3.20;;;3.30;99.90;;;;;;5034550;28;20204;-85
2023/12/21 06:42:26;;;;;;;5.17;3.37;;;3.30;99.90;;;;;;5037195;28;20209;-83
2023/12/21 06:45:14;;;;;;;3.87;3.03;;;3.30;99.90;;;;;;5035917;28;20190;-86
2023/12/21 06:48:02;;;;;;;6.27;3.63;;;3.30;99.90;;;;;;5036325;28;20200;-87
2023/12/21 06:50:49;;;;;;;5.00;3.27;;;3.20;99.90;;;;;;5035868;28;20686;-88
2023/12/21 06:53:37;;;;;;;6.27;3.73;;;3.20;99.90;;;;;;5036042;28;20193;-86
2023/12/21 06:56:25;;;;;;;5.00;3.40;;;3.20;99.90;;;;;;5035615;28;20222;-83
2023/12/21 06:59:21;;;;;;;4.80;3.20;;;3.20;99.90;;;;;;5035785;28;20203;-82
2023/12/21 07:02:08;;;;;;;4.50;3.27;;;3.20;99.90;;;;;;5036100;28;20224;-83
2023/12/21 07:04:56;;;;;;;5.27;3.57;;;3.20;99.90;;;;;;5034544;28;20240;-83
2023/12/21 07:07:43;;;;;;;5.83;3.83;;;3.20;99.90;;;;;;5035589;28;20314;-81
2023/12/21 07:10:30;;;;;;;7.40;4.40;;;3.20;99.90;;;;;;5035166;28;20199;-85
2023/12/21 07:13:18;;;;;;;6.97;4.10;;;3.20;99.90;;;;;;5035314;28;20198;-83
2023/12/21 07:16:06;;;;;;;7.07;4.60;;;3.30;99.90;;;;;;5034880;28;20202;-82
2023/12/21 07:18:53;;;;;;;7.90;4.40;;;3.30;99.90;;;;;;5035537;28;20198;-79
2023/12/21 07:21:41;;;;;;;6.47;4.40;;;3.30;99.90;;;;;;5035358;28;20749;-82
2023/12/21 07:24:28;;;;;;;7.40;4.47;;;3.30;99.90;;;;;;5034851;28;20204;-79
2023/12/21 07:27:16;;;;;;;7.07;4.53;;;3.30;99.90;;;;;;5033723;28;20219;-78
2023/12/21 07:30:04;;;;;;;9.87;5.10;;;3.30;99.90;;;;;;5034076;28;20278;-78
2023/12/21 07:32:51;;;;;;;7.10;5.03;;;3.40;99.90;;;;;;5034137;28;20239;-79
2023/12/21 07:35:39;;;;;;;7.03;5.30;;;3.40;99.90;;;;;;5033963;28;20199;-79
2023/12/21 07:38:27;;;;;;;7.37;4.80;;;3.40;99.90;;;;;;5034619;28;20321;-79
2023/12/21 07:41:15;;;;;;;6.30;5.10;;;3.40;99.90;;;;;;5034864;28;20224;-79
2023/12/21 07:44:03;;;;;;;7.43;5.37;;;3.50;99.90;;;;;;5033534;28;21092;-79
2023/12/21 07:46:51;;;;;;;9.07;5.50;;;3.40;99.90;;;;;;5033527;28;20201;-79
2023/12/21 07:49:39;;;;;;;7.57;5.07;;;3.50;99.90;;;;;;5034637;28;20200;-79
2023/12/21 07:52:27;;;;;;;9.07;5.50;;;3.50;99.90;;;;;;5032110;28;20202;-79
2023/12/21 07:55:14;;;;;;;8.13;5.80;;;3.40;99.90;;;;;;5035515;28;20206;-79
2023/12/21 07:58:03;;;;;;;7.87;5.30;;;3.50;99.90;;;;;;5033474;28;20199;-79
2023/12/21 08:00:50;;;;;;;7.07;5.23;;;3.50;99.90;;;;;;5034018;28;20213;-79
2023/12/21 08:03:38;;;;;;;7.57;5.50;;;3.50;99.90;;;;;;5033784;28;20558;-79
2023/12/21 08:06:26;;;;;;;6.63;5.00;;;3.60;99.90;;;;;;5034262;28;20229;-79
2023/12/21 08:09:13;;;;;;;8.33;5.30;;;3.60;99.90;;;;;;5033369;28;20205;-79
2023/12/21 08:12:01;;;;;;;8.10;5.60;;;3.60;99.90;;;;;;5033870;28;20227;-78
2023/12/21 08:14:48;;;;;;;8.03;5.60;;;3.60;99.90;;;;;;5033840;28;20607;-78
2023/12/21 08:17:36;;;;;;;8.27;4.93;;;3.60;99.90;;;;;;5034399;28;20203;-78
2023/12/21 08:20:23;;;;;;;6.47;4.60;;;3.70;99.90;;;;;;5034238;28;20200;-78
2023/12/21 08:23:13;;;;;;;6.23;4.43;;;3.70;99.90;;;;;;5033882;28;20214;-78
2023/12/21 08:26:00;;;;;;;7.37;4.13;;;3.70;99.90;;;;;;5033906;28;20215;-79
2023/12/21 08:28:48;;;;;;;5.67;4.10;;;3.70;99.90;;;;;;5032609;28;20195;-79
2023/12/21 08:31:35;;;;;;;5.23;3.60;;;3.70;99.90;;;;;;5033635;28;20204;-79
2023/12/21 08:34:23;;;;;;;4.40;3.23;;;3.80;99.90;;;;;;5033509;28;20196;-79
2023/12/21 08:37:12;;;;;;;4.07;3.43;;;3.70;99.90;;;;;;5034674;28;20203;-79
2023/12/21 08:40:00;;;;;;;4.17;2.90;;;3.70;99.90;;;;;;5034457;28;20274;-79
2023/12/21 08:42:48;;;;;;;5.17;3.27;;;3.70;99.90;;;;;;5033746;28;20226;-78
2023/12/21 08:45:35;;;;;;;4.40;3.00;;;3.70;99.90;;;;;;5033195;28;20281;-79
2023/12/21 08:48:23;;;;;;;4.57;3.30;;;3.70;99.90;;;;;;5033106;28;20270;-79
2023/12/21 08:51:11;;;;;;;3.53;2.80;;;3.70;99.90;;;;;;5033429;28;20676;-79
2023/12/21 08:53:58;;;;;;;4.00;3.00;;;3.80;99.90;;;;;;5032740;28;20196;-79
2023/12/21 08:56:46;;;;;;;3.73;3.00;;;3.80;99.90;;;;;;5032395;28;20251;-79
2023/12/21 08:59:33;;;;;;;3.23;2.70;;;3.80;99.90;;;;;;5032959;28;20274;-79
2023/12/21 09:02:21;;;;;;;4.37;3.00;;;3.80;99.90;;;;;;5032686;28;20310;-79
2023/12/21 09:05:08;;;;;;;3.30;2.63;;;3.80;99.90;;;;;;5032725;28;20265;-79
2023/12/21 09:07:55;;;;;;;4.83;2.73;;;3.80;99.90;;;;;;5031872;28;20230;-79
2023/12/21 09:10:43;;;;;;;3.77;2.83;;;3.80;99.90;;;;;;5032801;28;20681;-79
2023/12/21 09:13:30;;;;;;;4.17;2.70;;;3.90;99.90;;;;;;5032669;28;20190;-79
2023/12/21 09:16:18;;;;;;;4.90;3.23;;;3.90;99.90;;;;;;5032724;28;20572;-79
2023/12/21 09:19:06;;;;;;;4.10;3.10;;;4.00;99.90;;;;;;5034068;28;20197;-78
2023/12/21 09:21:54;;;;;;;4.80;2.97;;;3.90;99.90;;;;;;5032555;28;20224;-80
2023/12/21 09:24:42;;;;;;;4.20;3.20;;;3.90;99.90;;;;;;5033175;28;20601;-79
2023/12/21 09:27:31;;;;;;;3.97;3.27;;;3.90;99.90;;;;;;5032393;28;20249;-79
2023/12/21 09:30:20;;;;;;;3.93;2.90;;;3.90;99.90;;;;;;5031766;28;20670;-79
2023/12/21 09:33:08;;;;;;;7.03;3.20;;;4.00;99.90;;;;;;5031459;28;20199;-79
2023/12/21 09:35:58;;;;;;;6.10;3.13;;;3.90;99.90;;;;;;5032483;28;20284;-80
2023/12/21 09:38:46;;;;;;;4.27;2.80;;;3.90;99.90;;;;;;5031417;28;20205;-80
2023/12/21 09:41:34;;;;;;;4.63;3.10;;;3.90;99.90;;;;;;5031345;28;20249;-80
2023/12/21 09:44:22;;;;;;;4.17;2.97;;;3.90;99.90;;;;;;5033171;28;20202;-79
2023/12/21 09:47:18;;;;;;;4.73;3.10;;;4.00;99.90;;;;;;5031966;28;20199;-79
2023/12/21 09:50:09;;;;;;;5.37;3.07;;;4.00;99.90;;;;;;5031420;28;20270;-83
2023/12/21 09:52:59;;;;;;;4.20;3.30;;;4.10;99.90;;;;;;5030848;28;20195;-79
2023/12/21 09:55:48;;;;;;;3.93;2.90;;;4.00;99.90;;;;;;5031996;28;20217;-79
2023/12/21 09:58:36;;;;;;;4.27;3.10;;;4.00;99.90;;;;;;5033176;28;20201;-80
2023/12/21 10:01:24;;;;;;;3.53;2.90;;;4.00;99.90;;;;;;5032385;28;20215;-81
2023/12/21 10:04:12;;;;;;;3.40;2.77;;;4.00;99.90;;;;;;5037646;28;20255;-79
2023/12/21 10:07:00;;;;;;;3.57;3.20;;;4.10;99.90;;;;;;5032392;28;20333;-80
2023/12/21 10:09:47;;;;;;;4.17;3.07;;;4.00;99.90;;;;;;5031805;28;20225;-79
2023/12/21 10:12:35;;;;;;;4.63;3.47;;;4.00;99.90;;;;;;5031380;28;20780;-79
2023/12/21 10:15:23;;;;;;;4.60;3.10;;;4.10;99.90;;;;;;5034685;28;20202;-79
2023/12/21 10:18:10;;;;;;;4.90;3.50;;;4.00;99.90;;;;;;5036035;28;20273;-79
2023/12/21 10:20:59;;;;;;;7.27;3.60;;;4.10;99.90;;;;;;5037974;28;20212;-80
2023/12/21 10:23:47;;;;;;;5.87;3.57;;;4.10;99.90;;;;;;5035548;28;20193;-80
2023/12/21 10:26:47;;;;;;;5.00;3.67;;;4.10;99.90;;;;;;5035373;28;20222;-80
2023/12/21 10:29:37;;;;;;;4.80;3.67;;;4.10;99.90;;;;;;5036922;28;20210;-80
2023/12/21 10:32:25;;;;;;;5.00;3.73;;;4.20;99.90;;;;;;5035898;28;20196;-79
2023/12/21 10:35:12;;;;;;;5.27;3.57;;;4.10;99.90;;;;;;5035740;28;20344;-79
2023/12/21 10:38:01;;;;;;;4.33;3.90;;;4.20;99.90;;;;;;5036822;28;20581;-79
2023/12/21 10:40:49;;;;;;;8.30;4.20;;;4.20;99.90;;;;;;5036138;28;20668;-80
2023/12/21 10:43:37;;;;;;;6.00;4.07;;;4.20;99.90;;;;;;5035040;28;20286;-79
2023/12/21 10:46:30;;;;;;;5.13;4.20;;;4.20;99.90;;;;;;5035410;28;20229;-80
2023/12/21 10:49:18;;;;;;;5.10;3.97;;;4.20;99.90;;;;;;5034908;28;20294;-80
2023/12/21 10:52:07;;;;;;;8.13;4.33;;;4.30;99.90;;;;;;5035642;28;20191;-80
2023/12/21 10:54:56;;;;;;;5.43;3.80;;;4.30;99.90;;;;;;5035300;28;20194;-79
2023/12/21 10:57:46;;;;;;;7.13;4.40;;;4.30;99.90;;;;;;5036012;28;20372;-80
2023/12/21 11:00:34;;;;;;;6.67;4.00;;;4.30;99.90;;;;;;5035213;28;20191;-80
2023/12/21 11:03:22;;;;;;;6.73;4.00;;;4.40;99.90;;;;;;5035225;28;20573;-79
2023/12/21 11:06:11;;;;;;;5.93;3.87;;;4.40;99.90;;;;;;5035371;28;20613;-80
2023/12/21 11:09:00;;;;;;;5.33;4.17;;;4.40;99.90;;;;;;5035217;28;20225;-80
2023/12/21 11:11:48;;;;;;;5.63;4.10;;;4.40;99.90;;;;;;5033327;28;20214;-79
2023/12/21 11:14:36;;;;;;;4.33;3.60;;;4.50;99.90;;;;;;5035385;28;20658;-79
2023/12/21 11:17:25;;;;;;;4.97;3.87;;;4.50;99.90;;;;;;5034985;28;20242;-80
2023/12/21 11:20:16;;;;;;;5.37;3.43;;;4.60;99.90;;;;;;5034476;28;20285;-80
2023/12/21 11:23:07;;;;;;;6.13;3.80;;;4.60;99.90;;;;;;5034699;28;20682;-80
2023/12/21 11:25:59;;;;;;;6.57;4.00;;;4.70;99.90;;;;;;5035151;28;20211;-81
2023/12/21 11:28:47;;;;;;;3.67;3.20;;;4.70;99.90;;;;;;5033829;28;20213;-79
2023/12/21 11:31:37;;;;;;;4.63;3.60;;;4.80;99.90;;;;;;5033128;28;20196;-81
2023/12/21 11:34:35;;;;;;;4.13;3.70;;;4.90;99.90;;;;;;5034488;28;20282;-81
2023/12/21 11:37:25;;;;;;;3.57;3.20;;;4.90;99.90;;;;;;5035123;28;20207;-79
2023/12/21 11:40:17;;;;;;;6.07;3.40;;;5.00;99.90;;;;;;5033035;28;20196;-79
2023/12/21 11:43:07;;;;;;;3.43;3.00;;;5.00;99.90;;;;;;5035110;28;20218;-79
2023/12/21 11:45:56;;;;;;;3.90;3.00;;;5.10;99.90;;;;;;5035600;28;20358;-80
2023/12/21 11:48:44;;;;;;;4.53;2.90;;;5.10;99.90;;;;;;5034382;28;20572;-81
2023/12/21 11:51:31;;;;;;;3.93;2.80;;;5.10;99.90;;;;;;5034281;28;20203;-79
2023/12/21 11:54:23;;;;;;;4.80;3.20;;;5.10;99.90;;;;;;5034221;28;20641;-80
2023/12/21 11:57:13;;;;;;;5.57;3.23;;;5.10;99.90;;;;;;5034678;28;20223;-80
2023/12/21 12:00:31;;;;;;;6.13;3.60;;;5.20;99.90;;;;;;5034095;28;20256;-80
2023/12/21 12:03:22;;;;;;;4.97;3.60;;;5.20;99.90;;;;;;4998917;28;20761;-81
2023/12/21 12:06:10;;;;;;;5.77;3.70;;;5.10;99.90;;;;;;4998435;28;20238;-81
2023/12/21 12:08:58;;;;;;;4.70;3.40;;;5.10;99.90;;;;;;5012066;28;20231;-81
2023/12/21 12:11:45;;;;;;;4.30;3.70;;;5.20;99.90;;;;;;5011817;28;20216;-81
2023/12/21 12:14:33;;;;;;;4.37;3.60;;;5.20;99.90;;;;;;4998243;28;20340;-81
2023/12/21 12:17:21;;;;;;;4.50;3.80;;;5.20;99.90;;;;;;5011726;28;20290;-80
2023/12/21 12:20:09;;;;;;;7.13;3.67;;;5.10;99.90;;;;;;5011636;28;20740;-80
2023/12/21 12:22:57;;;;;;;4.73;3.40;;;5.20;99.90;;;;;;5011570;28;20630;-80
2023/12/21 12:25:45;;;;;;;4.67;3.47;;;5.10;99.90;;;;;;4997768;28;20304;-80
2023/12/21 12:28:36;;;;;;;4.70;3.50;;;5.10;99.90;;;;;;5011339;28;20192;-79
2023/12/21 12:31:24;;;;;;;5.87;3.70;;;5.10;99.90;;;;;;5011342;28;20782;-79
2023/12/21 12:34:12;;;;;;;6.40;3.73;;;5.10;99.90;;;;;;5011333;28;20211;-79
2023/12/21 12:37:03;;;;;;;5.50;3.73;;;5.10;99.90;;;;;;5011340;28;20233;-79
2023/12/21 12:39:53;;;;;;;5.33;3.70;;;5.10;99.90;;;;;;5024991;28;20286;-80
2023/12/21 12:42:40;;;;;;;5.23;3.80;;;5.10;99.90;;;;;;5031953;28;20224;-80
2023/12/21 12:45:31;;;;;;;5.17;3.60;;;5.20;99.90;;;;;;5033125;28;20238;-79
2023/12/21 12:48:19;;;;;;;5.70;4.00;;;5.10;99.90;;;;;;5032753;28;20664;-80
2023/12/21 12:51:11;;;;;;;5.93;3.47;;;5.10;99.90;;;;;;5033151;28;20199;-79
2023/12/21 12:54:00;;;;;;;5.27;3.70;;;5.10;99.90;;;;;;5031533;28;20196;-80
2023/12/21 12:56:48;;;;;;;6.87;3.77;;;5.10;99.90;;;;;;5031888;28;20223;-80
2023/12/21 12:59:36;;;;;;;5.37;3.77;;;5.10;99.90;;;;;;5033619;28;20322;-80
2023/12/21 13:02:24;;;;;;;9.27;4.33;;;5.10;99.90;;;;;;5032523;28;20667;-80
2023/12/21 13:05:14;;;;;;;6.03;4.23;;;5.10;99.90;;;;;;5032812;28;20357;-80
2023/12/21 13:08:02;;;;;;;6.17;4.07;;;5.10;99.90;;;;;;5032248;28;20190;-81
2023/12/21 13:10:50;;;;;;;5.83;4.00;;;5.10;99.90;;;;;;5033733;28;20229;-80
2023/12/21 13:13:38;;;;;;;6.60;4.10;;;5.10;99.90;;;;;;5032365;28;20203;-79
2023/12/21 13:16:25;;;;;;;5.63;4.17;;;5.10;99.90;;;;;;5032595;28;20233;-79
2023/12/21 13:19:13;;;;;;;5.30;3.70;;;5.10;99.90;;;;;;5032648;28;20211;-79
2023/12/21 13:22:00;;;;;;;6.50;4.27;;;5.10;99.90;;;;;;5032144;28;20311;-80
2023/12/21 13:24:48;;;;;;;4.63;3.83;;;5.10;99.90;;;;;;5031841;28;20210;-79
2023/12/21 13:27:36;;;;;;;5.33;4.00;;;5.10;99.90;;;;;;5032464;28;20211;-79
2023/12/21 13:30:23;;;;;;;5.73;3.67;;;5.10;99.90;;;;;;5032400;28;20253;-79
2023/12/21 13:33:11;;;;;;;5.30;3.53;;;5.10;99.90;;;;;;5031414;28;20202;-79
2023/12/21 13:35:59;;;;;;;4.73;3.47;;;5.10;99.90;;;;;;5032009;28;20548;-80
2023/12/21 13:38:47;;;;;;;5.93;3.63;;;5.00;99.90;;;;;;5018500;28;20195;-79
2023/12/21 13:41:35;;;;;;;5.53;3.77;;;5.00;99.90;;;;;;5031141;28;20219;-80
2023/12/21 13:44:22;;;;;;;7.50;3.73;;;5.00;99.90;;;;;;5032415;28;20702;-79
2023/12/21 13:47:19;;;;;;;5.77;3.43;;;5.00;99.90;;;;;;5031743;28;20206;-79
2023/12/21 13:50:07;;;;;;;5.40;3.40;;;5.00;99.90;;;;;;5031358;28;20639;-79
2023/12/21 13:52:55;;;;;;;4.23;3.20;;;5.00;99.90;;;;;;5030363;28;20305;-79
2023/12/21 13:55:42;;;;;;;6.07;3.80;;;5.00;99.90;;;;;;5031619;28;20195;-79
2023/12/21 13:58:30;;;;;;;5.53;3.40;;;5.00;99.90;;;;;;5031539;28;20207;-78
2023/12/21 14:01:22;;;;;;;4.63;3.27;;;5.00;99.90;;;;;;5032332;28;20604;-77
2023/12/21 14:04:10;;;;;;;5.30;3.17;;;5.00;99.90;;;;;;5031999;28;20196;-79
2023/12/21 14:06:57;;;;;;;9.00;3.43;;;5.00;99.90;;;;;;5031009;28;20191;-79
2023/12/21 14:09:45;;;;;;;5.10;3.30;;;5.00;99.90;;;;;;5031603;28;20209;-78
2023/12/21 14:12:32;;;;;;;4.90;2.87;;;4.90;99.90;;;;;;5033055;28;20215;-78
2023/12/21 14:15:21;;;;;;;4.47;3.03;;;4.90;99.90;;;;;;5032401;28;20334;-79
2023/12/21 14:18:09;;;;;;;4.93;2.80;;;4.90;99.90;;;;;;5031880;28;20208;-78
2023/12/21 14:20:57;;;;;;;4.07;2.80;;;4.90;99.90;;;;;;5031176;28;20217;-78
2023/12/21 14:23:44;;;;;;;3.47;2.80;;;4.90;99.90;;;;;;5031711;28;20223;-78
2023/12/21 14:26:32;;;;;;;3.63;2.60;;;4.90;99.90;;;;;;5032260;28;20930;-78
2023/12/21 14:29:20;;;;;;;3.87;2.50;;;5.00;99.90;;;;;;5031172;28;20206;-78
2023/12/21 14:32:08;;;;;;;4.83;2.90;;;4.80;99.90;;;;;;5031175;28;20196;-78
2023/12/21 14:34:56;;;;;;;3.40;2.67;;;4.90;99.90;;;;;;5031819;28;20199;-78
2023/12/21 14:37:43;;;;;;;4.67;2.77;;;4.90;99.90;;;;;;5031686;28;20221;-78
2023/12/21 14:40:31;;;;;;;4.80;2.73;;;4.80;99.90;;;;;;5031660;28;20273;-78
2023/12/21 14:43:18;;;;;;;3.97;2.67;;;4.80;99.90;;;;;;5031497;28;20218;-78
2023/12/21 14:46:06;;;;;;;4.03;2.53;;;4.80;99.90;;;;;;5031651;28;20191;-78